Old Hickory Observed Data For Previous 48 Hours

Caption
Day and Hour Reservoir Elevation (behind dam)* Tailwater Elevation (below dam)* Average Hourly Discharge*
1/15/2018 1 AM CST 444.43 387.93 5,800
1/15/2018 2 AM CST 444.43 387.63 5,800
1/15/2018 3 AM CST 444.34 389.04 11,800
1/15/2018 4 AM CST 444.22 390.82 18,600
1/15/2018 5 AM CST 444.12 391.52 18,900
1/15/2018 6 AM CST 444.05 391.45 18,900
1/15/2018 7 AM CST 444.03 392.53 19,200
1/15/2018 8 AM CST 444.01 392.65 19,200
1/15/2018 9 AM CST 444.00 392.85 19,200
1/15/2018 10 AM CST 444.10 391.58 12,600
1/15/2018 11 AM CST 444.15 391.36 12,400
1/15/2018 12 PM CST 444.25 391.05 12,400
1/15/2018 1 PM CST 444.35 389.00 5,900
1/15/2018 2 PM CST 444.45 388.53 5,900
1/15/2018 3 PM CST 444.47 387.88 5,900
1/15/2018 4 PM CST 444.48 389.57 12,000
1/15/2018 5 PM CST 444.50 389.55 12,000
1/15/2018 6 PM CST 444.49 389.58 12,000
1/15/2018 7 PM CST 444.47 391.17 18,600
1/15/2018 8 PM CST 444.42 391.82 18,900
1/15/2018 9 PM CST 444.44 392.14 18,900
1/15/2018 10 PM CST 444.51 390.71 12,200
1/15/2018 11 PM CST 444.49 390.49 12,200
1/16/2018 12 AM CST 444.45 390.35 12,200
1/16/2018 1 AM CST 444.55 389.45 6,000
1/16/2018 2 AM CST 444.61 388.21 6,000
1/16/2018 3 AM CST 444.59 387.99 6,000
1/16/2018 4 AM CST 444.59 389.19 11,800
1/16/2018 5 AM CST 444.51 390.91 18,600
1/16/2018 6 AM CST 444.47 391.37 18,600
1/16/2018 7 AM CST 444.40 392.32 18,600
1/16/2018 8 AM CST 444.32 392.65 18,600
1/16/2018 9 AM CST 444.31 392.74 18,600
1/16/2018 10 AM CST 444.31 392.86 18,600
1/16/2018 11 AM CST 444.35 392.65 18,600
1/16/2018 12 PM CST 444.40 391.39 12,400
1/16/2018 1 PM CST 444.46 391.10 12,400
1/16/2018 2 PM CST 444.52 390.82 12,400
1/16/2018 3 PM CST 444.54 391.17 12,400
1/16/2018 4 PM CST 444.61 390.79 12,400
1/16/2018 5 PM CST 444.54 392.45 19,200
1/16/2018 6 PM CST 444.52 392.72 19,200
1/16/2018 7 PM CST 444.52 392.82 19,200
1/16/2018 8 PM CST 444.48 392.88 19,200
1/16/2018 9 PM CST 444.42 393.32 19,500
1/16/2018 10 PM CST 444.34 393.34 19,500
1/16/2018 11 PM CST 444.34 393.44 19,500
1/17/2018 12 AM CST 444.37 392.47 12,800
1/17/2018 1 AM CST 444.61 390.11 6,100
1/17/2018 2 AM CST 444.62 390.92 12,400
1/17/2018 3 AM CST 444.65 390.85 12,200
1/17/2018 4 AM CST 444.63 392.13 18,900
1/17/2018 5 AM CST 444.64 392.74 19,200
1/17/2018 6 AM CST 444.68 392.77 19,200
1/17/2018 7 AM CST 444.60 392.93 19,200
1/17/2018 8 AM CST 444.56 393.11 19,200
1/17/2018 9 AM CST 444.52 393.34 19,500
1/17/2018 10 AM CST 444.49 393.55 19,500
1/17/2018 11 AM CST 444.52 393.57 19,500
1/17/2018 12 PM CST 444.55 393.58 19,500
1/17/2018 1 PM CST 444.57 393.69 19,500
1/17/2018 2 PM CST 444.61 392.00 12,600
1/17/2018 3 PM CST 444.65 391.48 12,400
1/17/2018 4 PM CST 444.72 391.35 12,400
1/17/2018 5 PM CST 444.69 392.79 19,200
1/17/2018 6 PM CST 444.60 393.22 19,200

Elevations are in feet above sea level. Discharges are in cubic feet per second and are reported at the end of the hour.